Time;durP1;ratioP1;P1;durP2;ratioP2;P2;SDS_P1;SDS_P2;PMS_P1;PMS_P2;Temp;Humidity;BMP_temperature;BMP_pressure;BME280_temperature;BME280_humidity;BME280_pressure;Samples;Min_cycle;Max_cycle;Signal;HPM_P1;HPM_P2
2024/02/15 00:00:43;;;;;;;;;16.00;12.25;;;;;-143.90;92.14;76237.06;4867692;28;102800;-74
2024/02/15 00:03:13;;;;;;;;;11.50;10.00;;;;;-143.90;95.17;76249.47;4860706;28;102351;-74
2024/02/15 00:05:40;;;;;;;;;17.25;16.00;;;;;-143.90;97.27;76259.81;4860125;28;101859;-74
2024/02/15 00:08:06;;;;;;;;;21.00;16.50;;;;;-143.90;97.07;76261.88;4870508;28;103634;-73
2024/02/15 00:10:34;;;;;;;;;16.50;15.00;;;;;-143.90;97.69;76259.81;4863813;28;102897;-74
2024/02/15 00:13:00;;;;;;;;;16.50;13.00;;;;;-143.90;97.64;76259.81;4864918;28;102948;-73
2024/02/15 00:15:27;;;;;;;;;13.75;13.00;;;;;-143.90;97.37;76255.69;4869374;28;102831;-73
2024/02/15 00:17:54;;;;;;;;;21.75;13.25;;;;;-143.90;97.59;76251.53;4853944;28;103399;-74
2024/02/15 00:20:20;;;;;;;;;13.00;12.50;;;;;-143.90;97.26;76255.69;4861344;28;103152;-74
2024/02/15 00:22:47;;;;;;;;;17.75;14.75;;;;;-143.90;97.14;76245.34;4865449;28;101810;-74
2024/02/15 00:25:14;;;;;;;;;19.25;16.25;;;;;-143.90;96.57;76239.13;4865436;28;102890;-73
2024/02/15 00:27:41;;;;;;;;;16.75;14.25;;;;;-143.90;95.96;76235.00;4861376;28;103506;-73
2024/02/15 00:30:08;;;;;;;;;15.75;14.75;;;;;-143.90;95.17;76232.94;4859746;28;102798;-74
2024/02/15 00:32:36;;;;;;;;;16.25;15.50;;;;;-143.90;95.24;76235.00;4862826;28;101972;-74
2024/02/15 00:35:09;;;;;;;;;10.50;6.50;;;;;-143.90;95.00;76235.00;4861421;28;101953;-73
2024/02/15 00:37:37;;;;;;;;;17.25;16.00;;;;;-143.90;97.20;76235.00;4866575;28;103559;-74
2024/02/15 00:40:04;;;;;;;;;14.00;14.00;;;;;-143.90;97.25;76235.00;4855945;28;102073;-73
2024/02/15 00:42:31;;;;;;;;;11.75;11.75;;;;;-143.90;96.17;76232.94;4868650;28;102439;-73
2024/02/15 00:44:58;;;;;;;;;11.00;10.50;;;;;-143.90;95.78;76224.66;4867381;28;101982;-73
2024/02/15 00:47:25;;;;;;;;;12.00;8.75;;;;;-143.90;95.81;76230.88;4865493;28;103373;-73
2024/02/15 00:49:51;;;;;;;;;11.50;9.50;;;;;-143.90;96.51;76222.59;4854967;28;101558;-73
2024/02/15 00:52:18;;;;;;;;;11.00;11.00;;;;;-143.90;96.92;76226.72;4870046;28;101723;-73
2024/02/15 00:54:48;;;;;;;;;14.00;11.00;;;;;-143.90;97.19;76218.47;4867709;28;101937;-73
2024/02/15 00:57:14;;;;;;;;;13.00;10.75;;;;;-143.90;97.47;76218.47;4864335;28;103807;-74
2024/02/15 00:59:41;;;;;;;;;16.50;14.75;;;;;-143.90;97.46;76222.59;4858870;28;102231;-73
2024/02/15 01:02:08;;;;;;;;;11.25;8.75;;;;;-143.90;97.64;76216.41;4862356;28;105737;-73
2024/02/15 01:04:35;;;;;;;;;19.75;17.00;;;;;-143.90;97.06;76218.47;4862809;28;102895;-73
2024/02/15 01:07:01;;;;;;;;;17.00;15.25;;;;;-143.90;97.01;76210.19;4858055;28;103523;-73
2024/02/15 01:09:30;;;;;;;;;16.25;13.25;;;;;-143.90;97.71;76214.31;4860169;28;102802;-73
2024/02/15 01:11:57;;;;;;;;;18.50;16.25;;;;;-143.90;97.58;76214.31;4853749;28;103674;-73
2024/02/15 01:14:23;;;;;;;;;22.75;18.25;;;;;-143.90;96.76;76208.13;4862934;28;102230;-73
2024/02/15 01:16:50;;;;;;;;;8.75;7.75;;;;;-143.90;96.50;76206.06;4865485;28;103694;-73
2024/02/15 01:19:16;;;;;;;;;12.00;11.25;;;;;-143.90;96.86;76210.19;4860032;28;102019;-73
2024/02/15 01:21:46;;;;;;;;;9.00;7.75;;;;;-143.90;97.22;76206.06;4858115;28;101622;-73
2024/02/15 01:24:13;;;;;;;;;14.75;12.00;;;;;-143.90;97.20;76214.31;4870460;28;106185;-73
2024/02/15 01:26:40;;;;;;;;;12.00;11.25;;;;;-143.90;97.20;76208.13;4865776;28;107908;-74
2024/02/15 01:29:10;;;;;;;;;13.00;10.50;;;;;-143.90;97.20;76203.97;4870043;28;102270;-74
2024/02/15 01:31:38;;;;;;;;;17.25;14.25;;;;;-143.90;96.50;76199.84;4865454;28;102705;-73
2024/02/15 01:34:04;;;;;;;;;13.75;11.25;;;;;-143.90;96.85;76197.78;4848258;28;101999;-73
2024/02/15 01:36:31;;;;;;;;;13.75;12.00;;;;;-143.90;96.99;76197.78;4857738;28;104367;-73
2024/02/15 01:38:58;;;;;;;;;13.25;9.75;;;;;-143.90;97.71;76191.56;4867275;28;102916;-73
2024/02/15 01:41:24;;;;;;;;;16.25;14.00;;;;;-143.90;98.91;76191.56;4862944;28;102753;-73
2024/02/15 01:43:52;;;;;;;;;24.50;20.50;;;;;-143.90;100.00;76185.38;4857754;28;101690;-73
2024/02/15 01:46:20;;;;;;;;;13.25;12.00;;;;;-143.90;100.00;76185.38;4862175;28;103414;-73
2024/02/15 01:48:48;;;;;;;;;11.00;8.50;;;;;-143.90;100.00;76177.09;4866811;28;101658;-73
2024/02/15 01:51:16;;;;;;;;;12.75;11.50;;;;;-143.90;100.00;76181.25;4851663;28;101541;-73
2024/02/15 01:53:43;;;;;;;;;12.00;8.75;;;;;-143.90;100.00;76179.16;4865622;28;103132;-73
2024/02/15 01:56:12;;;;;;;;;13.75;9.50;;;;;-143.90;100.00;76172.97;4868959;28;108163;-73
2024/02/15 01:58:40;;;;;;;;;12.25;10.25;;;;;-143.90;100.00;76168.81;4864857;28;101590;-73
2024/02/15 02:01:07;;;;;;;;;9.00;6.25;;;;;-143.90;100.00;76164.69;4869043;28;102045;-73
2024/02/15 02:03:35;;;;;;;;;6.75;6.00;;;;;-143.90;100.00;76164.69;4869672;28;103320;-73
2024/02/15 02:06:04;;;;;;;;;8.75;8.75;;;;;-143.90;100.00;76172.97;4849892;28;103971;-73
2024/02/15 02:08:31;;;;;;;;;8.00;7.25;;;;;-143.90;100.00;76172.97;4853936;28;101871;-73
2024/02/15 02:10:58;;;;;;;;;3.25;3.25;;;;;-143.90;100.00;76160.56;4868594;28;101818;-73
2024/02/15 02:13:24;;;;;;;;;5.00;4.00;;;;;-143.90;100.00;76156.41;4866741;28;101603;-73
2024/02/15 02:15:52;;;;;;;;;4.00;3.25;;;;;-143.90;100.00;76160.56;4857910;28;103389;-73
2024/02/15 02:18:19;;;;;;;;;8.00;7.25;;;;;-143.90;100.00;76160.56;4865743;28;101746;-73
2024/02/15 02:20:46;;;;;;;;;4.00;3.75;;;;;-143.90;100.00;76154.34;4859149;28;101774;-73
2024/02/15 02:23:20;;;;;;;;;8.00;7.50;;;;;-143.90;100.00;76154.34;4870470;28;101631;-73
2024/02/15 02:25:49;;;;;;;;;9.00;6.25;;;;;-143.90;100.00;76154.34;4857549;28;107844;-73
2024/02/15 02:28:18;;;;;;;;;9.00;9.00;;;;;-143.90;100.00;76154.34;4859318;28;101967;-74
2024/02/15 02:30:45;;;;;;;;;13.50;9.00;;;;;-143.90;100.00;76152.28;4864822;28;102076;-73
2024/02/15 02:33:18;;;;;;;;;8.00;8.00;;;;;-143.90;100.00;76146.09;4864563;28;103123;-73
2024/02/15 02:35:47;;;;;;;;;6.75;5.50;;;;;-143.90;100.00;76139.88;4861726;28;108226;-73
2024/02/15 02:38:15;;;;;;;;;13.50;10.50;;;;;-143.90;100.00;76141.94;4842552;28;103026;-73
2024/02/15 02:40:42;;;;;;;;;12.50;11.50;;;;;-143.90;100.00;76146.09;4842854;28;101707;-73
2024/02/15 02:43:09;;;;;;;;;12.25;11.00;;;;;-143.90;100.00;76144.00;4867188;28;101699;-73
2024/02/15 02:45:37;;;;;;;;;10.00;9.00;;;;;-143.90;100.00;76139.88;4849432;28;103552;-73
2024/02/15 02:48:04;;;;;;;;;14.00;13.00;;;;;-143.90;100.00;76144.00;4858605;28;101800;-73
2024/02/15 02:50:31;;;;;;;;;13.00;8.25;;;;;-143.90;100.00;76141.94;4862694;28;102136;-73
2024/02/15 02:52:59;;;;;;;;;13.00;11.25;;;;;-143.90;100.00;76146.09;4870578;28;102335;-73
2024/02/15 02:55:27;;;;;;;;;14.50;11.50;;;;;-143.90;100.00;76144.00;4870498;28;105046;-73
2024/02/15 02:57:54;;;;;;;;;12.00;10.25;;;;;-143.90;100.00;76146.09;4859792;28;102240;-73
2024/02/15 03:00:22;;;;;;;;;12.50;11.00;;;;;-143.90;100.00;76144.00;4861549;28;101949;-74
2024/02/15 03:02:49;;;;;;;;;14.50;12.00;;;;;-143.90;100.00;76139.88;4865580;28;102068;-73
2024/02/15 03:05:16;;;;;;;;;11.00;9.00;;;;;-143.90;100.00;76133.69;4864460;28;103295;-73
2024/02/15 03:07:44;;;;;;;;;12.00;11.00;;;;;-143.90;100.00;76131.59;4853116;28;101602;-74
2024/02/15 03:10:13;;;;;;;;;12.25;10.00;;;;;-143.90;100.00;76127.47;4861493;28;101807;-74
2024/02/15 03:12:46;;;;;;;;;8.25;7.25;;;;;-143.90;100.00;76139.88;4868962;28;101871;-73
2024/02/15 03:15:15;;;;;;;;;12.00;11.75;;;;;-143.90;100.00;76131.59;4862728;28;103561;-74
2024/02/15 03:17:44;;;;;;;;;12.25;11.00;;;;;-143.90;100.00;76135.75;4859064;28;101915;-74
2024/02/15 03:20:20;;;;;;;;;18.50;16.00;;;;;-143.90;100.00;76144.00;4863393;28;102842;-74
2024/02/15 03:22:59;;;;;;;;;16.25;13.00;;;;;-143.90;100.00;76137.81;4859373;28;102007;-74
2024/02/15 03:25:30;;;;;;;;;16.00;11.75;;;;;-143.90;100.00;76141.94;4867866;28;108174;-74
2024/02/15 03:28:02;;;;;;;;;8.50;7.75;;;;;-143.90;100.00;76146.09;4860839;28;102916;-73
2024/02/15 03:30:31;;;;;;;;;7.50;6.00;;;;;-143.90;100.00;76144.00;4867924;28;102029;-74
2024/02/15 03:32:58;;;;;;;;;8.50;8.00;;;;;-143.90;100.00;76148.16;4865406;28;102081;-73
2024/02/15 03:35:26;;;;;;;;;7.25;6.00;;;;;-143.90;100.00;76152.28;4860539;28;103359;-73
2024/02/15 03:37:53;;;;;;;;;11.25;9.00;;;;;-143.90;100.00;76144.00;4857724;28;105136;-72
2024/02/15 03:40:20;;;;;;;;;10.50;8.75;;;;;-143.90;100.00;76144.00;4867008;28;101691;-72
2024/02/15 03:42:47;;;;;;;;;13.00;10.50;;;;;-143.90;100.00;76144.00;4871118;28;102026;-72
2024/02/15 03:45:14;;;;;;;;;14.25;13.00;;;;;-143.90;100.00;76144.00;4855321;28;105668;-73
2024/02/15 03:47:40;;;;;;;;;9.75;8.00;;;;;-143.90;100.00;76152.28;4858671;28;101592;-72
2024/02/15 03:50:12;;;;;;;;;7.25;6.25;;;;;-143.90;100.00;76144.00;4870657;28;102985;-72
2024/02/15 03:52:38;;;;;;;;;8.50;7.00;;;;;-143.90;100.00;76148.16;4871049;28;101702;-72
2024/02/15 03:55:07;;;;;;;;;9.00;8.75;;;;;-143.90;100.00;76144.00;4868667;28;103506;-72
2024/02/15 03:57:34;;;;;;;;;10.75;9.75;;;;;-143.90;100.00;76146.09;4868120;28;102101;-72
2024/02/15 04:00:01;;;;;;;;;10.25;8.50;;;;;-143.90;100.00;76146.09;4860130;28;101591;-74
2024/02/15 04:02:30;;;;;;;;;11.00;9.00;;;;;-143.90;100.00;76144.00;4866614;28;101836;-73
2024/02/15 04:04:57;;;;;;;;;8.50;8.50;;;;;-143.90;100.00;76144.00;4861553;28;103601;-73
2024/02/15 04:07:26;;;;;;;;;13.00;11.50;;;;;-143.90;100.00;76148.16;4863878;28;102043;-73
2024/02/15 04:09:53;;;;;;;;;11.50;7.75;;;;;-143.90;100.00;76144.00;4853290;28;102134;-73
2024/02/15 04:12:21;;;;;;;;;10.50;7.25;;;;;-143.90;100.00;76144.00;4862300;28;106148;-73
2024/02/15 04:14:48;;;;;;;;;10.50;8.75;;;;;-143.90;100.00;76144.00;4865052;28;107971;-73
2024/02/15 04:17:16;;;;;;;;;9.75;8.75;;;;;-143.90;100.00;76144.00;4861027;28;101892;-73
2024/02/15 04:19:46;;;;;;;;;11.25;9.00;;;;;-143.90;100.00;76139.88;4862889;28;101915;-73
2024/02/15 04:22:16;;;;;;;;;22.25;17.50;;;;;-143.90;100.00;76144.00;4871468;28;101687;-72
2024/02/15 04:24:45;;;;;;;;;11.75;10.25;;;;;-143.90;100.00;76144.00;4865386;28;103536;-73
2024/02/15 04:27:13;;;;;;;;;13.25;12.00;;;;;-143.90;100.00;76141.94;4864538;28;102160;-73
2024/02/15 04:29:41;;;;;;;;;14.50;12.75;;;;;-143.90;100.00;76146.09;4863138;28;102240;-73
2024/02/15 04:32:12;;;;;;;;;13.00;9.75;;;;;-143.90;100.00;76144.00;4862677;28;101638;-73
2024/02/15 04:34:42;;;;;;;;;14.25;11.00;;;;;-143.90;100.00;76146.09;4857094;28;103380;-72
2024/02/15 04:37:09;;;;;;;;;11.50;8.00;;;;;-143.90;100.00;76144.00;4863050;28;101990;-73
2024/02/15 04:39:36;;;;;;;;;12.25;9.50;;;;;-143.90;100.00;76146.09;4871830;28;101885;-73
2024/02/15 04:42:06;;;;;;;;;19.75;14.50;;;;;-143.90;100.00;76139.88;4870969;28;105595;-73
2024/02/15 04:44:35;;;;;;;;;12.25;12.00;;;;;-143.90;100.00;76141.94;4858407;28;103379;-73
2024/02/15 04:47:05;;;;;;;;;13.50;10.50;;;;;-143.90;100.00;76144.00;4865555;28;101813;-73
2024/02/15 04:49:35;;;;;;;;;11.75;10.00;;;;;-143.90;100.00;76148.16;4867542;28;102131;-73
2024/02/15 04:52:02;;;;;;;;;14.00;12.00;;;;;-143.90;100.00;76150.22;4864253;28;104533;-73
2024/02/15 04:54:29;;;;;;;;;12.50;9.50;;;;;-143.90;100.00;76156.41;4862182;28;103326;-73
2024/02/15 04:56:56;;;;;;;;;16.25;13.00;;;;;-143.90;100.00;76162.63;4860135;28;101743;-73
2024/02/15 04:59:25;;;;;;;;;15.00;12.50;;;;;-143.90;100.00;76156.41;4871898;28;101828;-73
2024/02/15 05:01:53;;;;;;;;;9.00;7.50;;;;;-143.90;100.00;76148.16;4856050;28;101580;-73
2024/02/15 05:04:20;;;;;;;;;10.25;9.25;;;;;-143.90;100.00;76156.41;4867407;28;103520;-72
2024/02/15 05:06:47;;;;;;;;;15.75;12.00;;;;;-143.90;100.00;76156.41;4865557;28;101827;-73
2024/02/15 05:09:14;;;;;;;;;15.00;11.75;;;;;-143.90;100.00;76164.69;4867436;28;101939;-73
2024/02/15 05:11:47;;;;;;;;;16.50;13.50;;;;;-143.90;100.00;76175.03;4863142;28;101696;-73
2024/02/15 05:14:19;;;;;;;;;18.25;14.00;;;;;-143.90;100.00;76181.25;4862443;28;103441;-72
2024/02/15 05:16:47;;;;;;;;;20.75;13.50;;;;;-143.90;100.00;76172.97;4861282;28;102266;-73
2024/02/15 05:19:16;;;;;;;;;14.50;12.75;;;;;-143.90;100.00;76168.81;4873219;28;102117;-73
2024/02/15 05:21:47;;;;;;;;;18.75;12.75;;;;;-143.90;100.00;76166.75;4856957;28;103057;-75
2024/02/15 05:24:14;;;;;;;;;3.25;2.75;;;;;-143.90;100.00;76172.97;4865380;28;103577;-73
2024/02/15 05:26:43;;;;;;;;;9.50;9.50;;;;;-143.90;100.00;76172.97;4865497;28;102375;-73
2024/02/15 05:29:11;;;;;;;;;10.50;8.75;;;;;-143.90;100.00;76166.75;4867346;28;101831;-73
2024/02/15 05:31:38;;;;;;;;;8.50;7.00;;;;;-143.90;100.00;76172.97;4854962;28;102071;-72
2024/02/15 05:34:11;;;;;;;;;12.00;11.25;;;;;-143.90;100.00;76160.56;4853345;28;103007;-74
2024/02/15 05:36:39;;;;;;;;;18.50;13.50;;;;;-143.90;100.00;76168.81;4868828;28;102185;-74
2024/02/15 05:39:07;;;;;;;;;12.75;11.75;;;;;-143.90;100.00;76164.69;4862048;28;101936;-74
2024/02/15 05:41:34;;;;;;;;;12.75;11.00;;;;;-143.90;100.00;76175.03;4859847;28;102125;-74
2024/02/15 05:44:01;;;;;;;;;16.75;13.75;;;;;-143.90;100.00;76162.63;4852271;28;103390;-74
2024/02/15 05:46:28;;;;;;;;;17.50;14.00;;;;;-143.90;100.00;76166.75;4855926;28;103086;-74
2024/02/15 05:48:55;;;;;;;;;18.50;17.50;;;;;-143.90;100.00;76172.97;4856741;28;102368;-73
2024/02/15 05:51:23;;;;;;;;;20.75;19.50;;;;;-143.90;100.00;76181.25;4870025;28;102184;-74
2024/02/15 05:53:50;;;;;;;;;25.00;23.50;;;;;-143.90;100.00;76185.38;4859459;28;103361;-73
2024/02/15 05:56:17;;;;;;;;;21.50;19.25;;;;;-143.90;100.00;76181.25;4865825;28;101612;-73
2024/02/15 05:58:43;;;;;;;;;25.25;20.25;;;;;-143.90;100.00;76183.31;4860177;28;101820;-73
2024/02/15 06:01:12;;;;;;;;;19.75;15.75;;;;;-143.90;100.00;76183.31;4863482;28;102214;-73
2024/02/15 06:03:40;;;;;;;;;17.25;12.50;;;;;-143.90;100.00;76177.09;4863305;28;103443;-73
2024/02/15 06:06:07;;;;;;;;;13.25;11.00;;;;;-143.90;100.00;76177.09;4851539;28;101642;-73
2024/02/15 06:08:36;;;;;;;;;8.00;6.75;;;;;-143.90;100.00;76177.09;4864204;28;101525;-74
2024/02/15 06:11:05;;;;;;;;;10.50;8.50;;;;;-143.90;100.00;76172.97;4860263;28;102915;-74
2024/02/15 06:13:31;;;;;;;;;4.00;4.00;;;;;-143.90;100.00;76179.16;4862667;28;103576;-74
2024/02/15 06:15:58;;;;;;;;;7.00;7.00;;;;;-143.90;100.00;76175.03;4852924;28;102735;-74
2024/02/15 06:18:29;;;;;;;;;13.00;10.75;;;;;-143.90;100.00;76175.03;4869334;28;102330;-73
2024/02/15 06:21:02;;;;;;;;;8.25;6.00;;;;;-143.90;100.00;76179.16;4861481;28;103095;-72
2024/02/15 06:23:29;;;;;;;;;12.50;9.75;;;;;-143.90;100.00;76185.38;4872691;28;103385;-73
2024/02/15 06:25:58;;;;;;;;;10.00;9.25;;;;;-143.90;100.00;76185.38;4861857;28;102493;-73
2024/02/15 06:39:40;;;;;;;;;10.25;8.25;;;;;-143.90;100.00;76193.66;4874913;28;102049;-73
2024/02/15 06:42:11;;;;;;;;;10.00;9.25;;;;;-143.90;100.00;76193.66;4871587;28;104865;-73
2024/02/15 06:44:40;;;;;;;;;6.00;6.00;;;;;-143.90;100.00;76193.66;4874793;28;103356;-73
2024/02/15 06:47:09;;;;;;;;;10.75;8.75;;;;;-143.90;100.00;76189.50;4870523;28;101603;-73
2024/02/15 06:49:39;;;;;;;;;8.25;8.00;;;;;-143.90;100.00;76181.25;4879866;28;101911;-73
2024/02/15 06:52:11;;;;;;;;;6.50;4.00;;;;;-143.90;100.00;76172.97;4871851;28;101967;-73
2024/02/15 06:54:41;;;;;;;;;8.75;7.50;;;;;-143.90;100.00;76177.09;4876273;28;103391;-73
2024/02/15 06:57:08;;;;;;;;;7.00;6.25;;;;;-143.90;100.00;76158.50;4879145;28;101908;-73
2024/02/15 06:59:37;;;;;;;;;7.00;6.50;;;;;-143.90;100.00;76156.41;4875161;28;101945;-73
2024/02/15 07:02:05;;;;;;;;;8.50;7.75;;;;;-143.90;100.00;76144.00;4863800;28;103706;-73
2024/02/15 07:04:32;;;;;;;;;7.50;7.00;;;;;-143.90;100.00;76135.75;4875952;28;104644;-73
2024/02/15 07:06:59;;;;;;;;;11.25;8.50;;;;;-143.90;100.00;76121.28;4873254;28;106819;-73
2024/02/15 07:09:27;;;;;;;;;11.50;9.00;;;;;-143.90;100.00;76106.78;4870250;28;109133;-74
2024/02/15 07:11:54;;;;;;;;;9.50;8.00;;;;;-143.90;100.00;76096.44;4869505;28;102603;-72
2024/02/15 07:14:21;;;;;;;;;18.00;13.00;;;;;-143.90;100.00;76084.03;4873872;28;103806;-73
2024/02/15 07:16:49;;;;;;;;;15.25;14.00;;;;;-143.90;100.00;76071.63;4873706;28;101486;-73
2024/02/15 07:19:16;;;;;;;;;14.00;13.00;;;;;-143.90;100.00;76065.44;4875412;28;101978;-72
2024/02/15 07:21:44;;;;;;;;;13.25;12.25;;;;;-143.90;100.00;76055.09;4876912;28;102493;-73
2024/02/15 07:24:10;;;;;;;;;13.50;11.75;;;;;-143.90;100.00;76046.81;4870947;28;104547;-72
2024/02/15 07:26:37;;;;;;;;;14.25;11.50;;;;;-143.90;97.95;76044.75;4874104;28;101653;-72
2024/02/15 07:29:05;;;;;;;;;12.00;11.00;;;;;-143.90;97.92;76042.69;4878071;28;102067;-72
2024/02/15 07:31:35;;;;;;;;;12.75;12.00;;;;;-143.90;96.83;76040.63;4872755;28;101977;-73
2024/02/15 07:34:03;;;;;;;;;12.75;12.00;;;;;-143.90;96.62;76040.63;4870361;28;103329;-72
2024/02/15 07:36:30;;;;;;;;;13.75;12.50;;;;;-143.90;96.66;76032.34;4873463;28;101945;-72
2024/02/15 07:39:00;;;;;;;;;14.75;12.25;;;;;-143.90;96.28;76024.06;4873902;28;101961;-72
2024/02/15 07:41:29;;;;;;;;;12.50;9.25;;;;;-143.90;96.69;76007.53;4873246;28;101972;-72
2024/02/15 07:43:55;;;;;;;;;13.00;11.00;;;;;-143.90;97.25;76001.34;4866512;28;103563;-72
2024/02/15 07:46:24;;;;;;;;;14.25;14.25;;;;;-143.90;95.65;75986.84;4876936;28;101896;-72
2024/02/15 07:48:50;;;;;;;;;14.50;13.00;;;;;-143.90;94.15;75974.44;4873529;28;101720;-72
2024/02/15 07:51:20;;;;;;;;;17.00;14.00;;;;;-143.90;93.42;75976.53;4870587;28;102507;-72
2024/02/15 07:53:48;;;;;;;;;17.25;16.25;;;;;-143.90;91.28;75972.38;4873061;28;103482;-72
2024/02/15 07:56:16;;;;;;;;;20.50;16.75;;;;;-143.90;91.15;75968.25;4871236;28;101929;-72
2024/02/15 07:58:46;;;;;;;;;22.00;16.75;;;;;-143.90;87.29;75972.38;4871532;28;102054;-72
2024/02/15 08:01:22;;;;;;;;;15.25;14.75;;;;;-143.90;86.57;75962.03;4873085;28;101849;-72
2024/02/15 08:03:52;;;;;;;;;24.75;20.75;;;;;-143.90;86.50;75970.31;4863900;28;108005;-72
2024/02/15 08:06:23;;;;;;;;;16.00;13.75;;;;;-143.90;90.45;75957.91;4874761;28;101891;-72
2024/02/15 08:08:51;;;;;;;;;25.25;23.75;;;;;-143.90;88.70;75949.63;4866362;28;101945;-72
2024/02/15 08:11:19;;;;;;;;;25.50;23.00;;;;;-143.90;87.77;75939.28;4877513;28;101577;-72
2024/02/15 08:13:50;;;;;;;;;32.25;26.75;;;;;-143.90;87.87;75935.16;4867107;28;103523;-72
2024/02/15 08:16:19;;;;;;;;;27.75;23.25;;;;;-143.90;87.36;75914.47;4869691;28;102404;-72
2024/02/15 08:18:48;;;;;;;;;24.25;22.25;;;;;-143.90;86.53;75895.88;4874543;28;101866;-73
2024/02/15 08:21:15;;;;;;;;;25.00;23.50;;;;;-143.90;86.56;75877.25;4872539;28;103453;-72
2024/02/15 08:23:42;;;;;;;;;23.75;22.50;;;;;-143.90;84.55;75875.19;4868066;28;103315;-72
2024/02/15 08:26:13;;;;;;;;;26.00;22.75;;;;;-143.90;84.68;75881.41;4866304;28;101606;-72
2024/02/15 08:28:39;;;;;;;;;21.75;19.25;;;;;-143.90;84.27;75881.41;4876444;28;101877;-72
2024/02/15 08:31:07;;;;;;;;;29.50;21.75;;;;;-143.90;84.71;75893.81;4874761;28;101762;-73
2024/02/15 08:33:35;;;;;;;;;20.50;15.25;;;;;-143.90;85.85;75895.88;4874716;28;103519;-73
2024/02/15 08:36:03;;;;;;;;;22.75;16.75;;;;;-143.90;85.11;75883.47;4867646;28;101949;-72
2024/02/15 08:38:30;;;;;;;;;21.75;20.00;;;;;-143.90;85.81;75871.06;4869741;28;101601;-72
2024/02/15 08:40:57;;;;;;;;;21.25;20.00;;;;;-143.90;84.63;75854.53;4875081;28;101591;-72
2024/02/15 08:43:23;;;;;;;;;24.25;20.50;;;;;-143.90;84.59;75833.84;4874637;28;103454;-72
2024/02/15 08:45:50;;;;;;;;;20.75;17.50;;;;;-143.90;83.00;75809.03;4873216;28;101984;-72
2024/02/15 08:48:17;;;;;;;;;21.50;17.75;;;;;-143.90;82.93;75778.00;4867517;28;101773;-72
2024/02/15 08:50:45;;;;;;;;;21.25;18.00;;;;;-143.90;81.03;75753.19;4868842;28;101858;-72
2024/02/15 08:53:14;;;;;;;;;15.75;15.25;;;;;-143.90;78.93;75730.47;4870673;28;104187;-73
2024/02/15 08:55:41;;;;;;;;;20.75;20.00;;;;;-143.90;77.48;75718.06;4869049;28;102038;-73
2024/02/15 08:58:09;;;;;;;;;17.25;16.75;;;;;-143.90;76.82;75699.44;4866477;28;102071;-72
2024/02/15 09:00:40;;;;;;;;;25.00;19.50;;;;;-143.90;75.85;75691.16;4876952;28;102832;-73
2024/02/15 09:03:07;;;;;;;;;23.50;18.75;;;;;-143.90;76.52;75689.09;4870608;28;102890;-72
2024/02/15 09:05:34;;;;;;;;;23.75;20.75;;;;;-143.90;76.57;75687.03;4877334;28;101992;-73
2024/02/15 09:08:01;;;;;;;;;22.00;17.25;;;;;-143.90;75.54;75689.09;4864900;28;104414;-73
2024/02/15 09:10:28;;;;;;;;;21.75;21.75;;;;;-143.90;76.91;75676.69;4870665;28;104507;-72
2024/02/15 09:12:56;;;;;;;;;18.00;17.00;;;;;-143.90;76.14;75670.50;4874569;28;103360;-73
2024/02/15 09:15:23;;;;;;;;;21.00;19.25;;;;;-143.90;74.56;75660.16;4868303;28;102183;-72
2024/02/15 09:17:50;;;;;;;;;11.25;9.75;;;;;-143.90;74.32;75651.88;4871641;28;101938;-73
2024/02/15 09:20:20;;;;;;;;;23.00;19.75;;;;;-143.90;75.08;75651.88;4871743;28;101731;-73
2024/02/15 09:22:49;;;;;;;;;18.75;17.75;;;;;-143.90;74.39;75645.69;4872520;28;103430;-73
2024/02/15 09:25:16;;;;;;;;;20.50;15.25;;;;;-143.90;74.68;75637.41;4874518;28;101849;-73
2024/02/15 09:27:43;;;;;;;;;12.00;9.00;;;;;-143.90;74.02;75612.59;4867853;28;103975;-73
2024/02/15 09:30:11;;;;;;;;;16.25;13.75;;;;;-143.90;73.77;75594.00;4870444;28;102044;-73
2024/02/15 09:32:39;;;;;;;;;15.25;12.25;;;;;-143.90;72.67;75585.72;4870587;28;103693;-73
2024/02/15 09:35:07;;;;;;;;;13.00;10.75;;;;;-143.90;73.12;75585.72;4874711;28;101656;-73
2024/02/15 09:37:43;;;;;;;;;15.50;13.25;;;;;-143.90;70.97;75577.44;4871640;28;101784;-72
2024/02/15 09:40:11;;;;;;;;;8.00;7.00;;;;;-143.90;73.37;75575.38;4868810;28;102309;-72
2024/02/15 09:42:39;;;;;;;;;12.75;11.50;;;;;-143.90;71.55;75579.53;4873691;28;103397;-74
2024/02/15 09:45:10;;;;;;;;;19.00;15.25;;;;;-143.90;72.24;75569.19;4871140;28;103114;-72
2024/02/15 09:47:40;;;;;;;;;17.00;14.25;;;;;-143.90;71.38;75544.38;4871382;28;102334;-72
2024/02/15 09:50:08;;;;;;;;;20.25;17.00;;;;;-143.90;71.18;75542.31;4872599;28;105253;-71
2024/02/15 09:52:37;;;;;;;;;18.50;16.00;;;;;-143.90;70.83;75540.22;4876383;28;103505;-72
2024/02/15 09:55:05;;;;;;;;;12.00;12.00;;;;;-143.90;69.75;75536.09;4872478;28;101892;-73
2024/02/15 09:57:32;;;;;;;;;12.75;11.00;;;;;-143.90;70.55;75538.16;4869482;28;101897;-72
2024/02/15 10:00:08;;;;;;;;;19.75;12.25;;;;;-143.90;69.07;75521.63;4867308;28;101942;-73
2024/02/15 10:02:36;;;;;;;;;16.00;14.25;;;;;-143.90;69.12;75519.56;4868943;28;103508;-72
2024/02/15 10:05:03;;;;;;;;;15.00;12.00;;;;;-143.90;68.34;75519.56;4869385;28;102851;-72
2024/02/15 10:07:30;;;;;;;;;17.00;13.50;;;;;-143.90;70.04;75536.09;4872715;28;101541;-72
2024/02/15 10:09:56;;;;;;;;;17.25;16.00;;;;;-143.90;70.92;75552.63;4864076;28;102203;-72
2024/02/15 10:12:38;;;;;;;;;20.50;17.00;;;;;-143.90;69.01;75523.69;4873022;28;103445;-72
2024/02/15 10:15:07;;;;;;;;;15.00;12.00;;;;;-143.90;69.65;75515.41;4871624;28;101870;-72
2024/02/15 10:17:36;;;;;;;;;16.50;14.25;;;;;-143.90;68.65;75509.22;4876603;28;101743;-72
2024/02/15 10:20:04;;;;;;;;;24.50;19.50;;;;;-143.90;69.92;75521.63;4867349;28;101750;-72
2024/02/15 10:22:31;;;;;;;;;18.00;17.00;;;;;-143.90;69.82;75486.47;4872315;28;103393;-73
2024/02/15 10:25:14;;;;;;;;;13.75;12.00;;;;;-143.90;68.85;75461.66;4878267;28;102135;-73
2024/02/15 10:27:41;;;;;;;;;17.25;16.00;;;;;-143.90;68.84;75441.00;4873678;28;102458;-73
2024/02/15 10:30:20;;;;;;;;;17.75;16.00;;;;;-143.90;67.54;75424.44;4873190;28;101967;-73
2024/02/15 10:32:48;;;;;;;;;13.50;12.25;;;;;-143.90;66.02;75428.59;4871705;28;103346;-73
2024/02/15 10:35:22;;;;;;;;;21.00;16.00;;;;;-143.90;66.40;75416.19;4872193;28;101794;-73
2024/02/15 10:37:52;;;;;;;;;18.75;17.00;;;;;-143.90;66.07;75424.44;4865817;28;102420;-73
2024/02/15 10:40:23;;;;;;;;;18.25;16.00;;;;;-143.90;67.82;75424.44;4869556;28;101806;-73
2024/02/15 10:42:51;;;;;;;;;19.50;17.75;;;;;-143.90;66.07;75416.19;4879610;28;108063;-73
2024/02/15 10:45:19;;;;;;;;;19.50;17.50;;;;;-143.90;65.49;75391.38;4868597;28;103972;-73
2024/02/15 10:47:49;;;;;;;;;20.75;18.00;;;;;-143.90;66.52;75391.38;4874886;28;101590;-73
2024/02/15 10:50:16;;;;;;;;;21.25;19.75;;;;;-143.90;66.86;75436.84;4871462;28;102817;-73
2024/02/15 10:53:12;;;;;;;;;20.75;16.50;;;;;-143.90;68.35;75426.50;4873678;28;103126;-73
2024/02/15 10:55:52;;;;;;;;;15.00;12.75;;;;;-143.90;65.96;75432.72;4870907;28;101932;-73
2024/02/15 10:58:22;;;;;;;;;11.50;10.75;;;;;-143.90;68.12;75494.75;4871148;28;101985;-71
2024/02/15 11:00:50;;;;;;;;;8.50;8.00;;;;;-143.90;68.92;75474.06;4877289;28;102057;-71
2024/02/15 11:03:30;;;;;;;;;6.25;5.50;;;;;-143.90;67.81;75453.41;4873723;28;103350;-71
2024/02/15 11:06:02;;;;;;;;;10.25;10.25;;;;;-143.90;70.42;75469.94;4860790;28;104066;-72
2024/02/15 11:08:29;;;;;;;;;13.50;12.50;;;;;-143.90;69.87;75474.06;4874970;28;101708;-72
2024/02/15 11:10:58;;;;;;;;;9.00;9.00;;;;;-143.90;68.33;75453.41;4875447;28;102386;-72